Time;durP1;ratioP1;P1;durP2;ratioP2;P2;SDS_P1;SDS_P2;PMS_P1;PMS_P2;Temp;Humidity;BMP_temperature;BMP_pressure;BME280_temperature;BME280_humidity;BME280_pressure;Samples;Min_cycle;Max_cycle;Signal;HPM_P1;HPM_P2
2021/05/28 00:00:35;;;;;;;17.35;7.93;;;8.50;99.90;;;;;;5041649;28;20045;-78
2021/05/28 00:03:02;;;;;;;16.58;8.82;;;8.50;99.90;;;;;;5038650;28;20045;-78
2021/05/28 00:05:29;;;;;;;17.65;9.02;;;8.50;99.90;;;;;;5042459;28;20462;-78
2021/05/28 00:07:56;;;;;;;19.83;9.88;;;8.50;99.90;;;;;;5038135;28;20053;-78
2021/05/28 00:10:23;;;;;;;18.55;9.82;;;8.40;99.90;;;;;;5037633;28;20509;-78
2021/05/28 00:12:50;;;;;;;18.10;9.02;;;8.40;99.90;;;;;;5034644;28;20048;-78
2021/05/28 00:15:17;;;;;;;23.85;9.10;;;8.40;99.90;;;;;;5041850;28;20045;-79
2021/05/28 00:17:44;;;;;;;21.55;10.23;;;8.40;99.90;;;;;;5053164;28;20056;-78
2021/05/28 00:20:13;;;;;;;19.42;10.30;;;8.30;99.90;;;;;;5042080;28;20127;-78
2021/05/28 00:22:41;;;;;;;20.92;10.18;;;8.30;99.90;;;;;;5035063;28;20480;-78
2021/05/28 00:25:11;;;;;;;24.30;11.68;;;8.30;99.90;;;;;;5037850;28;20045;-78
2021/05/28 00:27:38;;;;;;;24.83;10.98;;;8.20;99.90;;;;;;5039143;28;20411;-78
2021/05/28 00:30:06;;;;;;;20.40;9.82;;;8.20;99.90;;;;;;5039026;28;20481;-78
2021/05/28 00:32:32;;;;;;;23.20;10.85;;;8.20;99.90;;;;;;5051722;28;20063;-78
2021/05/28 00:34:59;;;;;;;19.33;9.50;;;8.20;99.90;;;;;;5040379;28;20049;-78
2021/05/28 00:37:26;;;;;;;21.10;9.63;;;8.20;99.90;;;;;;5040341;28;20049;-79
2021/05/28 00:39:53;;;;;;;20.58;9.30;;;8.10;99.90;;;;;;5038989;28;20036;-78
2021/05/28 00:42:20;;;;;;;24.60;10.10;;;8.10;99.90;;;;;;5036353;28;20049;-78
2021/05/28 00:44:46;;;;;;;19.02;9.13;;;8.10;99.90;;;;;;5037735;28;21502;-79
2021/05/28 00:47:13;;;;;;;15.88;9.40;;;8.10;99.90;;;;;;5040159;28;20049;-78
2021/05/28 00:49:40;;;;;;;25.52;9.80;;;8.00;99.90;;;;;;5043166;28;20053;-78
2021/05/28 00:52:06;;;;;;;21.38;9.43;;;8.00;99.90;;;;;;5035897;28;20415;-78
2021/05/28 00:54:33;;;;;;;17.35;8.65;;;8.00;99.90;;;;;;5034100;28;20453;-78
2021/05/28 00:57:00;;;;;;;19.50;9.35;;;8.00;99.90;;;;;;5041542;28;20514;-78
2021/05/28 00:59:27;;;;;;;17.75;8.43;;;7.90;99.90;;;;;;5041480;28;20465;-78
2021/05/28 01:01:54;;;;;;;26.73;8.95;;;7.90;99.90;;;;;;5044514;28;20053;-78
2021/05/28 01:04:21;;;;;;;16.75;8.48;;;7.90;99.90;;;;;;5038252;28;20049;-78
2021/05/28 01:06:48;;;;;;;17.55;9.30;;;7.90;99.90;;;;;;5044862;28;20051;-78
2021/05/28 01:09:15;;;;;;;19.88;8.68;;;7.80;99.90;;;;;;5035399;28;20053;-78
2021/05/28 01:11:42;;;;;;;18.17;8.68;;;7.80;99.90;;;;;;5039486;28;20056;-79
2021/05/28 01:14:09;;;;;;;24.90;8.82;;;7.80;99.90;;;;;;5034435;28;20041;-79
2021/05/28 01:16:36;;;;;;;17.42;8.45;;;7.70;99.90;;;;;;5054340;28;20045;-79
2021/05/28 01:19:03;;;;;;;20.50;8.40;;;7.70;99.90;;;;;;5033098;28;20056;-78
2021/05/28 01:21:31;;;;;;;20.08;8.35;;;7.70;99.90;;;;;;5036203;28;20526;-78
2021/05/28 01:23:57;;;;;;;17.45;8.05;;;7.70;99.90;;;;;;5037330;28;20096;-79
2021/05/28 01:26:24;;;;;;;22.35;8.68;;;7.60;99.90;;;;;;5050837;28;20057;-79
2021/05/28 01:28:51;;;;;;;15.13;8.13;;;7.60;99.90;;;;;;5043053;28;20156;-79
2021/05/28 01:31:18;;;;;;;24.33;8.38;;;7.60;99.90;;;;;;5035689;28;20045;-79
2021/05/28 01:33:46;;;;;;;18.33;8.43;;;7.50;99.90;;;;;;5041264;28;20048;-79
2021/05/28 01:36:13;;;;;;;28.50;8.85;;;7.50;99.90;;;;;;5036815;28;20045;-79
2021/05/28 01:38:39;;;;;;;23.33;8.90;;;7.50;99.90;;;;;;5039896;28;20056;-79
2021/05/28 01:41:06;;;;;;;20.25;8.00;;;7.50;99.90;;;;;;5038030;28;20048;-78
2021/05/28 01:43:34;;;;;;;24.33;8.98;;;7.40;99.90;;;;;;5043616;28;20128;-78
2021/05/28 01:46:01;;;;;;;20.73;8.82;;;7.30;99.90;;;;;;5037258;28;20411;-78
2021/05/28 01:48:28;;;;;;;17.08;7.97;;;7.30;99.90;;;;;;5040531;28;20071;-78
2021/05/28 01:50:54;;;;;;;21.92;8.15;;;7.30;99.90;;;;;;5045891;28;20043;-79
2021/05/28 01:53:23;;;;;;;22.90;8.75;;;7.30;99.90;;;;;;5037058;28;20048;-79
2021/05/28 01:55:52;;;;;;;17.10;8.20;;;7.20;99.90;;;;;;5046203;28;20045;-78
2021/05/28 01:58:21;;;;;;;25.30;8.40;;;7.20;99.90;;;;;;5040984;28;20506;-78
2021/05/28 02:00:51;;;;;;;14.13;8.27;;;7.10;99.90;;;;;;5041608;28;20044;-78
2021/05/28 02:03:18;;;;;;;24.02;9.10;;;7.10;99.90;;;;;;5041385;28;20060;-78
2021/05/28 02:05:46;;;;;;;18.00;8.23;;;7.10;99.90;;;;;;5042747;28;20090;-78
2021/05/28 02:08:13;;;;;;;18.08;8.25;;;7.10;99.90;;;;;;5043319;28;20071;-78
2021/05/28 02:10:40;;;;;;;14.35;7.53;;;7.10;99.90;;;;;;5048003;28;20059;-78
2021/05/28 02:13:07;;;;;;;18.70;8.23;;;7.00;99.90;;;;;;5042639;28;20057;-79
2021/05/28 02:15:34;;;;;;;22.23;9.45;;;7.00;99.90;;;;;;5045115;28;20131;-79
2021/05/28 02:18:01;;;;;;;22.98;8.57;;;6.90;99.90;;;;;;5035661;28;20481;-79
2021/05/28 02:20:28;;;;;;;18.25;8.43;;;6.90;99.90;;;;;;5056588;28;20041;-79
2021/05/28 02:22:55;;;;;;;18.95;7.45;;;6.90;99.90;;;;;;5043190;28;20059;-79
2021/05/28 02:25:21;;;;;;;29.20;8.63;;;6.90;99.90;;;;;;5042147;28;20041;-78
2021/05/28 02:27:48;;;;;;;19.10;6.88;;;6.80;99.90;;;;;;5040862;28;20055;-79
2021/05/28 02:30:16;;;;;;;18.60;8.73;;;6.80;99.90;;;;;;5042169;28;20147;-79
2021/05/28 02:32:43;;;;;;;20.27;7.65;;;6.80;99.90;;;;;;5048273;28;20052;-79
2021/05/28 02:35:11;;;;;;;28.67;8.13;;;6.70;99.90;;;;;;5042385;28;20366;-78
2021/05/28 02:37:38;;;;;;;26.75;8.93;;;6.80;99.90;;;;;;5035452;28;20095;-78
2021/05/28 02:40:06;;;;;;;23.88;8.57;;;6.70;99.90;;;;;;5042947;28;20049;-78
2021/05/28 02:42:34;;;;;;;23.88;8.50;;;6.80;99.90;;;;;;5041478;28;20134;-78
2021/05/28 02:45:03;;;;;;;25.30;8.70;;;6.70;99.90;;;;;;5039115;28;20045;-78
2021/05/28 02:47:30;;;;;;;19.67;8.35;;;6.70;99.90;;;;;;5044207;28;20049;-78
2021/05/28 02:49:57;;;;;;;24.13;8.80;;;6.70;99.90;;;;;;5047899;28;20110;-78
2021/05/28 02:52:23;;;;;;;22.60;8.13;;;6.70;99.90;;;;;;5040376;28;20060;-78
2021/05/28 02:54:50;;;;;;;23.13;8.38;;;6.70;99.90;;;;;;5042223;28;20049;-79
2021/05/28 02:57:17;;;;;;;17.33;8.10;;;6.70;99.90;;;;;;5042659;28;20113;-79
2021/05/28 02:59:44;;;;;;;23.23;8.57;;;6.70;99.90;;;;;;5039931;28;20047;-79
2021/05/28 03:02:10;;;;;;;19.92;9.55;;;6.70;99.90;;;;;;5042728;28;20040;-79
2021/05/28 03:04:37;;;;;;;23.23;9.73;;;6.70;99.90;;;;;;5042614;28;20140;-79
2021/05/28 03:07:04;;;;;;;19.25;8.35;;;6.80;99.90;;;;;;5038361;28;20055;-79
2021/05/28 03:09:31;;;;;;;22.27;8.65;;;6.80;99.90;;;;;;5041459;28;20049;-79
2021/05/28 03:11:58;;;;;;;26.60;8.95;;;6.90;99.90;;;;;;5072563;28;20506;-79
2021/05/28 03:14:25;;;;;;;19.98;9.43;;;7.00;99.90;;;;;;5037613;28;20833;-79
2021/05/28 03:16:51;;;;;;;18.30;7.85;;;7.10;99.90;;;;;;5041537;28;20059;-77
2021/05/28 03:19:22;;;;;;;19.52;8.35;;;7.10;99.90;;;;;;5043143;28;20069;-78
2021/05/28 03:24:47;;;;;;;16.45;8.25;;;7.30;99.90;;;;;;4999025;28;21026;-78
2021/05/28 03:27:14;;;;;;;16.50;8.43;;;7.40;99.90;;;;;;5045027;28;20068;-78
2021/05/28 03:29:41;;;;;;;17.30;7.32;;;7.50;99.90;;;;;;5039922;28;20502;-78
2021/05/28 03:32:07;;;;;;;18.98;7.90;;;7.50;99.90;;;;;;5062660;28;20415;-78
2021/05/28 03:34:34;;;;;;;17.50;7.57;;;7.50;99.90;;;;;;5037158;28;20041;-78
2021/05/28 03:37:01;;;;;;;19.65;8.38;;;7.60;99.90;;;;;;5042187;28;20053;-78
2021/05/28 03:39:28;;;;;;;16.08;6.75;;;7.60;99.90;;;;;;5040579;28;20116;-78
2021/05/28 03:41:54;;;;;;;12.45;7.03;;;7.70;99.90;;;;;;5033244;28;20058;-78
2021/05/28 03:44:21;;;;;;;15.15;7.38;;;7.70;99.90;;;;;;5038635;28;20051;-78
2021/05/28 03:46:48;;;;;;;16.52;7.47;;;7.70;99.90;;;;;;5043521;28;20048;-78
2021/05/28 03:49:14;;;;;;;16.63;7.13;;;7.70;99.90;;;;;;5041114;28;20028;-79
2021/05/28 03:51:41;;;;;;;15.77;7.00;;;7.70;99.90;;;;;;5040816;28;20044;-79
2021/05/28 03:54:08;;;;;;;16.50;6.80;;;7.60;99.90;;;;;;5035646;28;20409;-78
2021/05/28 03:56:35;;;;;;;14.88;7.13;;;7.60;99.90;;;;;;5041183;28;20052;-78
2021/05/28 03:59:01;;;;;;;16.60;7.97;;;7.50;99.90;;;;;;5040467;28;20060;-79
2021/05/28 04:01:28;;;;;;;14.50;6.97;;;7.50;99.90;;;;;;5055503;28;20404;-78
2021/05/28 04:03:55;;;;;;;16.10;7.32;;;7.40;99.90;;;;;;5037287;28;20140;-78
2021/05/28 04:06:22;;;;;;;16.42;7.97;;;7.40;99.90;;;;;;5037955;28;20136;-78
2021/05/28 04:08:49;;;;;;;29.40;9.88;;;7.30;99.90;;;;;;5040010;28;20090;-78
2021/05/28 04:11:17;;;;;;;15.75;7.15;;;7.30;99.90;;;;;;5042140;28;20754;-79
2021/05/28 04:13:44;;;;;;;17.13;7.45;;;7.30;99.90;;;;;;5040852;28;20042;-78
2021/05/28 04:16:11;;;;;;;15.88;7.85;;;7.30;99.90;;;;;;5051205;28;20064;-78
2021/05/28 04:18:38;;;;;;;20.63;7.80;;;7.30;99.90;;;;;;5040265;28;20500;-78
2021/05/28 04:21:05;;;;;;;28.17;8.85;;;7.30;99.90;;;;;;5041578;28;20408;-78
2021/05/28 04:23:32;;;;;;;16.30;6.78;;;7.30;99.90;;;;;;5040762;28;20049;-78
2021/05/28 04:25:58;;;;;;;22.52;8.98;;;7.30;99.90;;;;;;5042079;28;20041;-79
2021/05/28 04:28:26;;;;;;;20.15;8.07;;;7.30;99.90;;;;;;5039087;28;20055;-78
2021/05/28 04:30:52;;;;;;;17.50;8.50;;;7.40;99.90;;;;;;5040763;28;20053;-78
2021/05/28 04:33:19;;;;;;;19.35;8.38;;;7.40;99.90;;;;;;5040325;28;20048;-78
2021/05/28 04:35:46;;;;;;;18.20;7.90;;;7.50;99.90;;;;;;5041583;28;20045;-78
2021/05/28 04:38:12;;;;;;;30.63;8.23;;;7.60;99.90;;;;;;5035042;28;20058;-79
2021/05/28 04:40:40;;;;;;;23.27;7.57;;;7.80;99.90;;;;;;5040104;28;20068;-80
2021/05/28 04:43:06;;;;;;;14.90;7.15;;;7.80;99.90;;;;;;5046225;28;20063;-78
2021/05/28 04:45:34;;;;;;;16.45;8.13;;;7.90;99.90;;;;;;5043548;28;20053;-80
2021/05/28 04:48:01;;;;;;;20.50;8.00;;;8.10;99.90;;;;;;5038084;28;20041;-80
2021/05/28 04:50:31;;;;;;;20.75;8.27;;;8.20;99.90;;;;;;5044673;28;20045;-80
2021/05/28 04:53:00;;;;;;;22.27;8.35;;;8.30;99.90;;;;;;5038384;28;20053;-78
2021/05/28 04:55:28;;;;;;;19.17;7.72;;;8.40;99.90;;;;;;5036906;28;20053;-79
2021/05/28 04:57:55;;;;;;;18.63;7.80;;;8.60;99.90;;;;;;5037440;28;20049;-79
2021/05/28 05:00:24;;;;;;;20.00;8.35;;;8.70;99.90;;;;;;5037128;28;20044;-78
2021/05/28 05:02:51;;;;;;;19.73;8.73;;;8.80;99.90;;;;;;5042825;28;20045;-79
2021/05/28 05:05:18;;;;;;;16.45;8.35;;;8.90;99.90;;;;;;5041975;28;20049;-78
2021/05/28 05:07:46;;;;;;;19.30;7.65;;;9.00;99.90;;;;;;5038662;28;20075;-79
2021/05/28 05:10:13;;;;;;;19.95;7.57;;;9.10;99.90;;;;;;5037023;28;20047;-80
2021/05/28 05:12:41;;;;;;;15.23;7.57;;;9.20;99.90;;;;;;5032594;28;20051;-79
2021/05/28 05:15:10;;;;;;;14.60;7.93;;;9.40;99.90;;;;;;5071983;28;20136;-79
2021/05/28 05:17:37;;;;;;;14.20;7.80;;;9.50;99.90;;;;;;5037781;28;20541;-79
2021/05/28 05:20:06;;;;;;;20.58;8.10;;;9.70;99.90;;;;;;5041460;28;20112;-79
2021/05/28 05:22:33;;;;;;;15.02;7.03;;;9.80;99.90;;;;;;5033873;28;20056;-77
2021/05/28 05:25:01;;;;;;;18.20;8.07;;;9.90;99.90;;;;;;5038537;28;20108;-79
2021/05/28 05:27:28;;;;;;;19.27;7.93;;;10.00;99.90;;;;;;5039548;28;20053;-79
2021/05/28 05:29:54;;;;;;;21.30;8.02;;;10.10;99.90;;;;;;5035918;28;20053;-78
2021/05/28 05:32:21;;;;;;;15.45;8.13;;;10.20;99.90;;;;;;5056496;28;20569;-78
2021/05/28 05:34:48;;;;;;;16.00;8.10;;;10.30;99.90;;;;;;5037928;28;20060;-78
2021/05/28 05:37:15;;;;;;;23.05;8.48;;;10.30;99.90;;;;;;5042073;28;20484;-79
2021/05/28 05:39:42;;;;;;;16.92;7.63;;;10.30;99.90;;;;;;5044839;28;20056;-79
2021/05/28 05:42:08;;;;;;;21.23;8.13;;;10.30;99.90;;;;;;5040269;28;20970;-78
2021/05/28 05:44:35;;;;;;;18.60;7.15;;;10.30;99.90;;;;;;5045140;28;20071;-79
2021/05/28 05:47:02;;;;;;;16.33;7.50;;;10.30;99.90;;;;;;5039803;28;20047;-79
2021/05/28 05:49:28;;;;;;;14.23;7.28;;;10.50;99.90;;;;;;5042866;28;20051;-79
2021/05/28 05:51:55;;;;;;;15.48;7.78;;;10.60;99.90;;;;;;5041986;28;20041;-78
2021/05/28 05:54:22;;;;;;;18.10;6.70;;;10.70;99.90;;;;;;5044108;28;22116;-79
2021/05/28 05:56:48;;;;;;;16.52;6.85;;;10.80;99.90;;;;;;5077708;28;20476;-79
2021/05/28 05:59:15;;;;;;;16.00;7.43;;;10.90;99.90;;;;;;5044649;28;20063;-78
2021/05/28 06:01:42;;;;;;;14.18;6.78;;;11.00;99.90;;;;;;5042998;28;20053;-78
2021/05/28 06:04:09;;;;;;;14.35;6.60;;;11.20;99.90;;;;;;5043112;28;20097;-78
2021/05/28 06:06:35;;;;;;;17.67;6.45;;;11.30;99.90;;;;;;5075446;28;20052;-78
2021/05/28 06:09:02;;;;;;;14.40;6.03;;;11.40;99.90;;;;;;5044981;28;20078;-77
2021/05/28 06:11:30;;;;;;;15.13;7.18;;;11.60;99.90;;;;;;5036944;28;20481;-78
2021/05/28 06:13:56;;;;;;;16.02;5.90;;;11.70;99.90;;;;;;5040799;28;20045;-79
2021/05/28 06:16:23;;;;;;;12.80;6.13;;;11.80;99.90;;;;;;5040361;28;20049;-79
2021/05/28 06:18:50;;;;;;;9.18;6.07;;;11.90;99.90;;;;;;5047908;28;20049;-79
2021/05/28 06:21:17;;;;;;;10.27;5.90;;;12.10;99.90;;;;;;5043123;28;20053;-79
2021/05/28 06:23:44;;;;;;;10.55;5.68;;;12.20;99.90;;;;;;5040224;28;20049;-80
2021/05/28 06:26:10;;;;;;;10.07;5.68;;;12.30;99.90;;;;;;5042187;28;20132;-80
2021/05/28 06:28:37;;;;;;;15.00;6.40;;;12.30;99.90;;;;;;5032652;28;20052;-78
2021/05/28 06:31:04;;;;;;;12.55;6.75;;;12.20;99.90;;;;;;5039526;28;20057;-78
2021/05/28 06:33:30;;;;;;;14.85;5.80;;;12.30;99.90;;;;;;5042683;28;20055;-79
2021/05/28 06:35:57;;;;;;;14.05;6.03;;;12.50;99.90;;;;;;5041846;28;20508;-78
2021/05/28 06:38:26;;;;;;;13.13;5.75;;;12.60;99.90;;;;;;5042998;28;20049;-80
2021/05/28 06:40:52;;;;;;;9.57;5.40;;;12.60;99.90;;;;;;5037815;28;20059;-80
2021/05/28 06:43:19;;;;;;;15.68;5.55;;;12.70;99.90;;;;;;5034339;28;20131;-79
2021/05/28 06:45:46;;;;;;;12.40;5.97;;;12.80;99.90;;;;;;5037801;28;20053;-79
2021/05/28 06:48:13;;;;;;;23.05;6.32;;;12.90;99.90;;;;;;5042308;28;20136;-79
2021/05/28 06:50:41;;;;;;;12.10;5.82;;;13.00;99.90;;;;;;5053632;28;20053;-80
2021/05/28 06:53:08;;;;;;;14.02;5.78;;;13.10;99.90;;;;;;5041640;28;20053;-80
2021/05/28 06:55:36;;;;;;;16.48;6.20;;;13.30;99.90;;;;;;5041392;28;20049;-80
2021/05/28 06:58:03;;;;;;;14.07;5.60;;;13.20;99.90;;;;;;5040260;28;20062;-79
2021/05/28 07:00:30;;;;;;;10.57;5.53;;;13.10;99.90;;;;;;5039250;28;20049;-80
2021/05/28 07:02:57;;;;;;;10.90;5.15;;;12.90;99.90;;;;;;5034138;28;20049;-79
2021/05/28 07:05:24;;;;;;;11.98;5.82;;;12.80;99.90;;;;;;5040431;28;20037;-79
2021/05/28 07:07:52;;;;;;;14.93;7.15;;;12.70;99.90;;;;;;5043715;28;21113;-79
2021/05/28 07:10:20;;;;;;;11.18;5.85;;;12.70;99.90;;;;;;5033499;28;20062;-79
2021/05/28 07:12:50;;;;;;;14.52;5.68;;;12.70;99.90;;;;;;5042504;28;20045;-79
2021/05/28 07:15:18;;;;;;;9.98;5.72;;;12.90;99.90;;;;;;5039355;28;20040;-78
2021/05/28 07:17:46;;;;;;;15.40;5.65;;;13.30;99.90;;;;;;5041105;28;24806;-79
2021/05/28 07:20:14;;;;;;;12.75;4.53;;;13.60;99.90;;;;;;5058201;28;20579;-79
2021/05/28 07:22:40;;;;;;;10.98;4.88;;;13.80;99.90;;;;;;5068798;28;20054;-79
2021/05/28 07:25:10;;;;;;;13.10;5.72;;;14.00;99.90;;;;;;5048059;28;20128;-79
2021/05/28 07:27:37;;;;;;;12.63;4.45;;;14.10;99.90;;;;;;5040938;28;20496;-78
2021/05/28 07:30:06;;;;;;;9.35;4.10;;;14.10;99.90;;;;;;5038512;28;20057;-78
2021/05/28 07:32:33;;;;;;;8.13;4.15;;;14.20;99.90;;;;;;5038262;28;20042;-79
2021/05/28 07:35:05;;;;;;;9.95;4.20;;;14.30;99.90;;;;;;5041533;28;20051;-78
2021/05/28 07:37:32;;;;;;;9.25;3.75;;;14.30;99.90;;;;;;5042579;28;20065;-79
2021/05/28 07:39:59;;;;;;;8.77;4.18;;;14.50;99.90;;;;;;5042108;28;20084;-79
2021/05/28 07:42:25;;;;;;;7.80;4.63;;;14.50;99.90;;;;;;5040382;28;20051;-79
2021/05/28 07:44:52;;;;;;;10.63;4.82;;;14.50;99.90;;;;;;5037100;28;20061;-80
2021/05/28 07:47:19;;;;;;;12.13;4.10;;;14.60;99.90;;;;;;5044917;28;20059;-79
2021/05/28 07:49:46;;;;;;;10.77;3.95;;;14.60;99.90;;;;;;5038741;28;20408;-79
2021/05/28 07:52:13;;;;;;;9.80;4.10;;;14.60;99.90;;;;;;5044167;28;21592;-78
2021/05/28 07:54:39;;;;;;;10.07;3.92;;;14.60;99.90;;;;;;5034982;28;20046;-79
2021/05/28 07:57:07;;;;;;;7.97;3.65;;;14.60;99.90;;;;;;5034358;28;20139;-79
2021/05/28 07:59:34;;;;;;;9.52;3.75;;;14.80;99.90;;;;;;5037249;28;20049;-79
2021/05/28 08:02:01;;;;;;;6.65;3.97;;;14.80;99.90;;;;;;5042108;28;20448;-80
2021/05/28 08:04:27;;;;;;;11.77;4.45;;;14.80;99.90;;;;;;5042078;28;20053;-79
2021/05/28 08:06:54;;;;;;;8.50;4.07;;;14.90;99.90;;;;;;5038800;28;20047;-79
2021/05/28 08:09:21;;;;;;;9.80;3.90;;;14.80;99.90;;;;;;5039247;28;20156;-79
2021/05/28 08:11:47;;;;;;;11.50;4.50;;;14.70;99.90;;;;;;5042595;28;20049;-78
2021/05/28 08:14:14;;;;;;;9.32;3.88;;;14.60;99.90;;;;;;5038952;28;20072;-79
2021/05/28 08:16:41;;;;;;;8.15;3.45;;;14.50;99.90;;;;;;5039528;28;20641;-79
2021/05/28 08:19:08;;;;;;;12.30;4.25;;;14.50;99.90;;;;;;5045505;28;20108;-80
2021/05/28 08:21:34;;;;;;;8.73;3.30;;;14.70;99.90;;;;;;5053397;28;20063;-79
2021/05/28 08:24:01;;;;;;;7.38;3.60;;;14.90;99.90;;;;;;5038912;28;20057;-80
2021/05/28 08:26:28;;;;;;;6.07;2.83;;;15.20;99.90;;;;;;5040919;28;20411;-80
2021/05/28 08:28:54;;;;;;;7.22;2.95;;;15.30;99.90;;;;;;5056483;28;20045;-79
2021/05/28 08:31:21;;;;;;;7.50;2.95;;;15.50;99.90;;;;;;5040366;28;20056;-79
2021/05/28 08:33:48;;;;;;;7.35;3.58;;;15.70;99.90;;;;;;5040911;28;20045;-79
2021/05/28 08:36:15;;;;;;;5.28;3.03;;;15.80;99.90;;;;;;5044028;28;20055;-79
2021/05/28 08:38:42;;;;;;;8.18;3.55;;;15.90;99.90;;;;;;5038379;28;20132;-79
2021/05/28 08:41:10;;;;;;;11.20;4.10;;;16.10;99.90;;;;;;5038337;28;20056;-78
2021/05/28 08:43:41;;;;;;;6.38;3.53;;;16.10;99.90;;;;;;5033577;28;20045;-79
2021/05/28 08:46:08;;;;;;;5.50;2.83;;;16.20;99.90;;;;;;5057599;28;20063;-79
2021/05/28 08:48:35;;;;;;;5.88;2.85;;;16.50;99.90;;;;;;5044594;28;20140;-80
2021/05/28 08:51:01;;;;;;;8.95;4.00;;;16.70;99.90;;;;;;5054802;28;20071;-79
2021/05/28 08:53:28;;;;;;;6.28;2.58;;;17.00;99.90;;;;;;5039652;28;20111;-79
2021/05/28 08:55:55;;;;;;;5.60;2.42;;;17.10;99.90;;;;;;5037346;28;20059;-80
2021/05/28 08:58:22;;;;;;;4.43;2.70;;;17.30;99.90;;;;;;5039958;28;20080;-80
2021/05/28 09:00:50;;;;;;;8.25;3.42;;;17.40;99.90;;;;;;5040726;28;20045;-79
2021/05/28 09:03:19;;;;;;;10.38;3.65;;;17.60;99.90;;;;;;5040566;28;20037;-79
2021/05/28 09:05:49;;;;;;;6.47;3.40;;;17.80;99.90;;;;;;5037591;28;20988;-79
2021/05/28 09:08:33;;;;;;;7.13;2.47;;;18.00;99.90;;;;;;5040157;28;20852;-78
2021/05/28 09:11:05;;;;;;;3.13;1.88;;;18.10;99.90;;;;;;5040508;28;20047;-79
2021/05/28 09:13:32;;;;;;;5.90;3.28;;;18.10;99.90;;;;;;5038013;28;20111;-79
2021/05/28 09:16:14;;;;;;;7.38;3.10;;;18.00;99.90;;;;;;5039900;28;20055;-79
2021/05/28 09:18:47;;;;;;;7.45;3.22;;;18.00;99.90;;;;;;5050187;28;20044;-78
2021/05/28 09:21:31;;;;;;;6.97;3.58;;;18.00;99.90;;;;;;5050719;28;20041;-79
2021/05/28 09:24:03;;;;;;;10.77;4.13;;;18.00;99.90;;;;;;5034790;28;20056;-78
2021/05/28 09:26:31;;;;;;;7.45;2.70;;;18.00;99.90;;;;;;5035440;28;20096;-78
2021/05/28 09:29:00;;;;;;;4.22;2.78;;;17.90;99.90;;;;;;5055852;28;20076;-78
2021/05/28 09:31:32;;;;;;;5.75;2.83;;;17.90;99.90;;;;;;5038776;28;20049;-80
2021/05/28 09:33:58;;;;;;;3.28;2.67;;;17.90;99.90;;;;;;5025379;28;20767;-80
2021/05/28 09:36:35;;;;;;;8.00;3.70;;;18.10;99.90;;;;;;5045106;28;20055;-80
2021/05/28 09:39:14;;;;;;;5.97;3.72;;;18.30;99.90;;;;;;5043536;28;20995;-79
2021/05/28 09:41:53;;;;;;;5.57;3.00;;;18.50;99.90;;;;;;5036361;28;20507;-80
2021/05/28 09:44:24;;;;;;;4.88;2.90;;;18.50;99.90;;;;;;5049125;28;20063;-77
2021/05/28 09:46:57;;;;;;;5.00;2.53;;;18.40;99.90;;;;;;5041368;28;20071;-78
2021/05/28 09:49:29;;;;;;;7.40;3.03;;;18.50;99.90;;;;;;5053224;28;20072;-79
2021/05/28 09:52:15;;;;;;;3.23;2.50;;;18.60;99.90;;;;;;5040022;28;20057;-79
2021/05/28 09:55:27;;;;;;;7.43;3.03;;;18.80;99.90;;;;;;5041148;28;20053;-79
2021/05/28 09:57:54;;;;;;;5.40;2.60;;;18.90;99.90;;;;;;5040223;28;20168;-79
2021/05/28 10:00:29;;;;;;;9.50;3.28;;;19.00;99.30;;;;;;5041270;28;20057;-79
2021/05/28 10:03:16;;;;;;;7.07;2.28;;;18.90;99.90;;;;;;5044438;28;20069;-79
2021/05/28 10:05:45;;;;;;;6.53;2.65;;;19.10;99.90;;;;;;5026062;28;20053;-79
2021/05/28 10:08:13;;;;;;;5.25;2.17;;;19.20;97.60;;;;;;5037193;28;20049;-79
2021/05/28 10:10:41;;;;;;;5.63;2.42;;;19.20;99.90;;;;;;5034362;28;20045;-79
2021/05/28 10:13:11;;;;;;;3.30;2.20;;;19.40;99.90;;;;;;5041339;28;20136;-79
2021/05/28 10:15:49;;;;;;;4.80;2.80;;;19.70;99.90;;;;;;5067304;28;20113;-79
2021/05/28 10:18:19;;;;;;;4.55;2.92;;;20.00;97.70;;;;;;5050611;28;20076;-79
2021/05/28 10:20:48;;;;;;;4.60;2.35;;;20.10;97.80;;;;;;5060715;28;20143;-79
2021/05/28 10:23:15;;;;;;;3.88;2.38;;;20.20;97.20;;;;;;5052383;28;20044;-79
2021/05/28 10:25:43;;;;;;;5.13;2.83;;;20.10;96.40;;;;;;5045511;28;20489;-79
2021/05/28 10:28:19;;;;;;;2.75;2.50;;;20.10;95.20;;;;;;5072904;28;20057;-79
2021/05/28 10:30:48;;;;;;;2.97;2.53;;;20.20;97.10;;;;;;5038813;28;20055;-79
2021/05/28 10:33:29;;;;;;;5.22;2.63;;;20.50;95.80;;;;;;5042311;28;20049;-79
2021/05/28 10:35:58;;;;;;;4.38;2.50;;;20.70;94.90;;;;;;5043730;28;20037;-79
2021/05/28 10:38:30;;;;;;;5.70;2.60;;;20.90;93.60;;;;;;5039608;28;20132;-79
2021/05/28 10:41:06;;;;;;;6.13;2.47;;;21.00;92.30;;;;;;5061840;28;20101;-79
2021/05/28 10:43:48;;;;;;;6.10;2.20;;;21.00;94.20;;;;;;5060167;28;20052;-79
2021/05/28 10:46:18;;;;;;;3.50;2.20;;;21.40;92.70;;;;;;5075515;28;20055;-79
2021/05/28 10:48:46;;;;;;;3.33;2.20;;;21.70;90.30;;;;;;5045655;28;20522;-80
2021/05/28 10:51:23;;;;;;;3.60;2.00;;;22.00;88.70;;;;;;5056347;28;20041;-79
2021/05/28 10:53:50;;;;;;;2.80;2.20;;;22.20;90.00;;;;;;5073903;28;20662;-79
2021/05/28 10:56:20;;;;;;;4.97;2.38;;;22.30;87.60;;;;;;5059136;28;20042;-79
2021/05/28 10:59:09;;;;;;;9.02;2.80;;;22.50;83.10;;;;;;5046931;28;20099;-79
2021/05/28 11:01:42;;;;;;;3.88;2.70;;;22.60;82.30;;;;;;5058810;28;20139;-80
2021/05/28 11:04:10;;;;;;;2.92;2.10;;;22.70;82.30;;;;;;5048296;28;20044;-80
2021/05/28 11:06:59;;;;;;;5.93;2.22;;;22.80;81.30;;;;;;5045415;28;20128;-80
2021/05/28 11:09:38;;;;;;;2.17;1.33;;;23.10;83.50;;;;;;5073155;28;20060;-80
2021/05/28 11:12:07;;;;;;;6.10;2.38;;;23.40;80.80;;;;;;5047928;28;20161;-80
2021/05/28 11:14:36;;;;;;;3.67;1.95;;;23.50;74.30;;;;;;5044856;28;20476;-80
2021/05/28 11:17:02;;;;;;;4.60;2.67;;;23.50;78.10;;;;;;5043697;28;20559;-78
2021/05/28 11:19:33;;;;;;;6.38;3.63;;;23.80;81.20;;;;;;5056769;28;20056;-79
2021/05/28 11:22:05;;;;;;;6.35;3.38;;;24.30;82.40;;;;;;5054854;28;20415;-79
2021/05/28 11:24:54;;;;;;;4.50;2.33;;;24.80;78.00;;;;;;5041001;28;20049;-79
2021/05/28 11:27:22;;;;;;;3.55;2.35;;;25.00;75.50;;;;;;5032128;28;20072;-79
2021/05/28 11:29:54;;;;;;;2.75;2.30;;;25.20;74.70;;;;;;5058314;28;20052;-79
2021/05/28 11:32:43;;;;;;;4.05;2.10;;;25.30;72.30;;;;;;5039759;28;20490;-79
2021/05/28 11:35:16;;;;;;;4.30;1.83;;;25.30;69.00;;;;;;5041023;28;20090;-79
2021/05/28 11:38:01;;;;;;;3.08;1.85;;;24.80;64.70;;;;;;5043195;28;20053;-79
2021/05/28 11:40:33;;;;;;;7.00;2.50;;;24.00;65.70;;;;;;5041967;28;20048;-78
2021/05/28 11:43:06;;;;;;;;;;;23.10;67.40;;;;;;5070657;28;20048;-79
2021/05/28 11:45:36;;;;;;;3.40;1.63;;;22.60;68.70;;;;;;5060668;28;20375;-79
2021/05/28 11:48:10;;;;;;;10.05;2.40;;;22.30;72.90;;;;;;5027177;28;20118;-79
2021/05/28 11:50:41;;;;;;;5.10;2.97;;;23.00;71.20;;;;;;5071148;28;20510;-80
2021/05/28 11:53:11;;;;;;;5.75;2.80;;;23.80;77.80;;;;;;5038716;28;20129;-80
2021/05/28 11:55:47;;;;;;;3.92;2.92;;;24.70;79.40;;;;;;5046833;28;20187;-80
2021/05/28 11:58:15;;;;;;;8.18;3.30;;;25.50;71.50;;;;;;5047870;28;20436;-80
2021/05/28 12:00:44;;;;;;;4.45;3.08;;;26.00;69.30;;;;;;5073239;28;20049;-80
2021/05/28 12:03:13;;;;;;;4.97;3.05;;;26.30;66.60;;;;;;5037805;28;20635;-80
2021/05/28 12:05:42;;;;;;;4.20;2.85;;;26.40;67.80;;;;;;5059551;28;20135;-80
2021/05/28 12:08:26;;;;;;;4.43;2.88;;;26.60;64.20;;;;;;5033442;28;20067;-80
2021/05/28 12:10:58;;;;;;;5.82;2.63;;;26.80;64.00;;;;;;5074271;28;20055;-80
2021/05/28 12:13:31;;;;;;;5.20;2.85;;;26.50;64.90;;;;;;5032712;28;20427;-80
2021/05/28 12:15:59;;;;;;;;;;;25.90;64.70;;;;;;5054506;28;20479;-80
2021/05/28 12:18:29;;;;;;;3.00;2.20;;;25.60;66.50;;;;;;5072671;28;19967;-80
2021/05/28 12:20:58;;;;;;;3.38;2.40;;;25.60;67.60;;;;;;5059828;28;20045;-80
2021/05/28 12:23:32;;;;;;;6.28;2.47;;;26.10;66.60;;;;;;5045325;28;20055;-80
2021/05/28 12:26:03;;;;;;;2.92;2.50;;;27.10;65.70;;;;;;5042789;28;20061;-80
2021/05/28 12:28:38;;;;;;;9.20;2.10;;;28.40;59.60;;;;;;5037319;28;20056;-80
2021/05/28 12:31:19;;;;;;;3.72;2.10;;;29.40;62.40;;;;;;5040513;28;20152;-80
2021/05/28 12:33:54;;;;;;;7.30;2.57;;;30.70;56.80;;;;;;5042158;28;20503;-80
2021/05/28 12:36:25;;;;;;;2.83;1.90;;;31.70;52.50;;;;;;5046260;28;20049;-80
2021/05/28 12:38:53;;;;;;;4.38;2.15;;;31.50;51.20;;;;;;5057037;28;20051;-80
2021/05/28 12:41:26;;;;;;;2.95;2.30;;;30.60;51.00;;;;;;5040816;28;20061;-80
2021/05/28 12:43:54;;;;;;;2.97;2.22;;;29.60;52.30;;;;;;5056343;28;20511;-80
2021/05/28 12:46:33;;;;;;;3.85;2.17;;;29.70;54.60;;;;;;5042315;28;20404;-80
2021/05/28 12:49:11;;;;;;;4.95;1.80;;;30.70;54.10;;;;;;5040261;28;20056;-80
2021/05/28 12:51:41;;;;;;;4.65;2.42;;;31.70;49.90;;;;;;5037458;28;20048;-81
2021/05/28 12:54:14;;;;;;;4.00;2.33;;;31.10;48.40;;;;;;5040402;28;20045;-80
2021/05/28 12:56:42;;;;;;;2.75;1.70;;;30.20;49.10;;;;;;5053059;28;20472;-80